Time;durP1;ratioP1;P1;durP2;ratioP2;P2;SDS_P1;SDS_P2;PMS_P1;PMS_P2;Temp;Humidity;BMP_temperature;BMP_pressure;BME280_temperature;BME280_humidity;BME280_pressure;Samples;Min_cycle;Max_cycle;Signal;HPM_P1;HPM_P2
2024/04/19 00:01:39;;;;;;;5.40;1.20;;;8.20;98.90;;;;;;5426586;26;20109;-83
2024/04/19 00:04:05;;;;;;;0.77;0.57;;;8.20;98.80;;;;;;5428832;26;20007;-82
2024/04/19 00:06:31;;;;;;;3.40;1.38;;;8.20;98.90;;;;;;5436461;26;20391;-81
2024/04/19 00:08:57;;;;;;;3.45;1.30;;;8.20;98.60;;;;;;5400778;26;20000;-82
2024/04/19 00:11:22;;;;;;;4.88;0.80;;;8.20;99.00;;;;;;5427296;26;20010;-82
2024/04/19 00:13:48;;;;;;;0.60;0.60;;;8.10;99.10;;;;;;5424089;26;20071;-81
2024/04/19 00:16:13;;;;;;;1.92;0.90;;;8.20;99.10;;;;;;5408782;26;19995;-81
2024/04/19 00:18:39;;;;;;;2.45;0.70;;;8.20;99.20;;;;;;5408582;26;20340;-81
2024/04/19 00:21:04;;;;;;;3.70;0.90;;;8.20;99.20;;;;;;5436959;26;20018;-83
2024/04/19 00:23:30;;;;;;;3.30;0.60;;;8.10;99.80;;;;;;5389791;26;20363;-81
2024/04/19 00:25:56;;;;;;;6.30;1.55;;;8.10;99.90;;;;;;5423336;26;20014;-81
2024/04/19 00:28:22;;;;;;;5.97;1.30;;;8.00;99.90;;;;;;5400352;26;20470;-81
2024/04/19 00:30:48;;;;;;;2.72;0.88;;;7.80;99.90;;;;;;5402063;26;20014;-82
2024/04/19 00:33:13;;;;;;;3.08;1.25;;;7.80;99.90;;;;;;5405056;26;20379;-81
2024/04/19 00:35:39;;;;;;;3.10;0.95;;;7.90;99.90;;;;;;5394248;26;20012;-81
2024/04/19 00:38:05;;;;;;;7.63;1.65;;;7.70;99.90;;;;;;5429679;26;20633;-81
2024/04/19 00:40:31;;;;;;;6.72;1.05;;;7.70;99.90;;;;;;5430960;26;20007;-81
2024/04/19 00:42:57;;;;;;;5.38;1.45;;;7.60;99.90;;;;;;5403404;26;20014;-81
2024/04/19 00:45:33;;;;;;;2.63;1.42;;;7.60;99.90;;;;;;5399277;26;20015;-81
2024/04/19 00:47:59;;;;;;;;;;;7.60;99.90;;;;;;5409520;26;20003;-80
2024/04/19 00:50:25;;;;;;;0.40;0.30;;;7.70;99.90;;;;;;5395542;26;19931;-82
2024/04/19 00:52:50;;;;;;;4.95;1.20;;;7.60;99.90;;;;;;5397132;26;20159;-81
2024/04/19 00:55:16;;;;;;;1.42;0.75;;;7.60;99.90;;;;;;5432724;26;20022;-81
2024/04/19 00:57:42;;;;;;;1.95;0.95;;;7.60;99.90;;;;;;5429555;26;20666;-80
2024/04/19 01:00:08;;;;;;;4.05;1.30;;;7.50;99.90;;;;;;5411158;26;20007;-80
2024/04/19 01:02:33;;;;;;;3.40;1.00;;;7.40;99.90;;;;;;5395151;26;20092;-81
2024/04/19 01:04:59;;;;;;;3.78;1.83;;;7.30;99.90;;;;;;5393985;26;20523;-80
2024/04/19 01:07:25;;;;;;;0.95;0.85;;;7.30;99.90;;;;;;5435437;26;20117;-80
2024/04/19 01:09:50;;;;;;;0.98;0.90;;;7.30;99.90;;;;;;5377896;26;20014;-79
2024/04/19 01:12:16;;;;;;;5.40;1.50;;;7.20;99.90;;;;;;5431353;26;20451;-79
2024/04/19 01:14:41;;;;;;;2.22;1.10;;;7.20;99.90;;;;;;5431095;26;19995;-81
2024/04/19 01:17:07;;;;;;;1.35;0.98;;;7.20;99.90;;;;;;5430582;26;20006;-79
2024/04/19 01:19:32;;;;;;;2.08;0.77;;;7.10;99.90;;;;;;5432183;26;20008;-79
2024/04/19 01:21:58;;;;;;;2.00;0.90;;;7.10;99.90;;;;;;5421324;26;19999;-79
2024/04/19 01:24:31;;;;;;;2.92;1.80;;;7.20;99.90;;;;;;5376312;26;19992;-79
2024/04/19 01:26:56;;;;;;;2.05;1.05;;;7.10;99.90;;;;;;5410516;26;20003;-79
2024/04/19 01:29:22;;;;;;;3.45;1.13;;;7.10;99.90;;;;;;5395126;26;20000;-79
2024/04/19 01:31:47;;;;;;;5.75;1.70;;;7.10;99.90;;;;;;5427981;26;20381;-79
2024/04/19 01:34:13;;;;;;;2.35;1.33;;;7.00;99.90;;;;;;5427746;26;20011;-79
2024/04/19 01:36:39;;;;;;;6.47;1.38;;;7.00;99.90;;;;;;5391323;26;20015;-79
2024/04/19 01:39:04;;;;;;;2.53;1.20;;;7.00;99.90;;;;;;5433375;26;20417;-78
2024/04/19 01:41:30;;;;;;;5.45;2.15;;;7.00;99.90;;;;;;5433668;26;19996;-79
2024/04/19 01:43:56;;;;;;;2.38;1.60;;;7.10;99.90;;;;;;5402286;26;20008;-79
2024/04/19 01:46:21;;;;;;;4.63;1.83;;;7.10;99.90;;;;;;5375081;26;19995;-79
2024/04/19 01:48:47;;;;;;;4.47;1.35;;;7.00;99.90;;;;;;5399636;26;20326;-79
2024/04/19 01:51:12;;;;;;;2.20;1.38;;;6.90;99.90;;;;;;5378359;26;19994;-79
2024/04/19 01:53:38;;;;;;;1.42;1.10;;;7.00;99.90;;;;;;5430364;26;19996;-79
2024/04/19 01:56:04;;;;;;;3.35;1.83;;;6.90;99.90;;;;;;5419972;26;20014;-79
2024/04/19 01:58:29;;;;;;;1.25;1.00;;;6.90;99.90;;;;;;5426625;26;19994;-79
2024/04/19 02:00:55;;;;;;;2.85;1.35;;;6.90;99.90;;;;;;5422595;26;20328;-79
2024/04/19 02:03:20;;;;;;;3.20;1.42;;;7.00;99.90;;;;;;5428990;26;20439;-79
2024/04/19 02:05:46;;;;;;;6.32;1.17;;;6.90;99.90;;;;;;5394012;26;20773;-79
2024/04/19 02:08:11;;;;;;;4.40;1.77;;;6.90;99.90;;;;;;5445499;26;19995;-79
2024/04/19 02:10:37;;;;;;;5.28;1.30;;;6.90;99.90;;;;;;5401998;26;20025;-79
2024/04/19 02:13:02;;;;;;;4.90;1.35;;;6.90;99.90;;;;;;5430589;26;20095;-79
2024/04/19 02:15:28;;;;;;;3.45;1.75;;;6.90;99.90;;;;;;5409919;26;20494;-79
2024/04/19 02:17:53;;;;;;;3.63;1.48;;;6.80;99.90;;;;;;5411241;26;20438;-79
2024/04/19 02:20:19;;;;;;;2.13;1.17;;;6.90;99.90;;;;;;5433660;26;20569;-79
2024/04/19 02:22:44;;;;;;;3.92;1.65;;;6.90;99.90;;;;;;5436922;26;20324;-79
2024/04/19 02:25:10;;;;;;;2.78;1.40;;;6.80;99.90;;;;;;5432659;26;20389;-79
2024/04/19 02:33:04;;;;;;;2.65;1.38;;;6.70;99.90;;;;;;5411885;26;20535;-80
2024/04/19 02:35:29;;;;;;;2.78;1.52;;;6.80;99.90;;;;;;5397712;26;20002;-79
2024/04/19 02:37:55;;;;;;;2.03;1.40;;;6.70;99.90;;;;;;5425235;26;20004;-79
2024/04/19 02:40:20;;;;;;;2.55;1.45;;;7.00;99.90;;;;;;5440887;26;20138;-78
2024/04/19 02:42:46;;;;;;;0.88;0.85;;;6.70;99.90;;;;;;5434211;26;20434;-80
2024/04/19 02:45:11;;;;;;;4.78;1.95;;;6.70;99.90;;;;;;5406574;26;20335;-78
2024/04/19 02:47:37;;;;;;;2.00;1.77;;;6.70;99.90;;;;;;5405288;26;20092;-79
2024/04/19 02:50:03;;;;;;;4.85;2.50;;;6.80;99.90;;;;;;5408007;26;20014;-79
2024/04/19 02:52:28;;;;;;;2.10;1.23;;;6.80;99.90;;;;;;5400270;26;20361;-78
2024/04/19 02:54:54;;;;;;;3.42;2.10;;;6.80;99.90;;;;;;5405904;26;19999;-79
2024/04/19 02:57:19;;;;;;;2.63;1.83;;;6.70;99.90;;;;;;5436871;26;20016;-79
2024/04/19 02:59:45;;;;;;;2.08;1.45;;;6.70;99.90;;;;;;5397285;26;20014;-79
2024/04/19 03:02:10;;;;;;;3.65;2.50;;;6.70;99.90;;;;;;5424955;26;20011;-79
2024/04/19 03:04:37;;;;;;;3.70;2.35;;;6.70;99.90;;;;;;5398406;26;20003;-79
2024/04/19 03:07:03;;;;;;;3.47;2.28;;;6.80;99.90;;;;;;5420744;26;20081;-79
2024/04/19 03:09:28;;;;;;;1.95;1.15;;;6.70;99.90;;;;;;5405256;26;20007;-79
2024/04/19 03:12:00;;;;;;;3.33;2.10;;;6.80;99.90;;;;;;5397292;26;20003;-79
2024/04/19 03:14:26;;;;;;;4.60;2.50;;;6.70;99.90;;;;;;5385797;26;20822;-79
2024/04/19 03:16:51;;;;;;;9.95;2.92;;;6.70;99.90;;;;;;5431643;26;20010;-78
2024/04/19 03:19:17;;;;;;;7.55;2.70;;;6.80;99.90;;;;;;5392487;26;20412;-79
2024/04/19 03:21:42;;;;;;;3.63;2.92;;;6.70;99.90;;;;;;5435925;26;20000;-79
2024/04/19 03:24:08;;;;;;;2.33;2.13;;;6.80;99.90;;;;;;5384172;26;20073;-78
2024/04/19 03:26:34;;;;;;;2.05;1.58;;;6.80;99.90;;;;;;5435199;26;20475;-79
2024/04/19 03:28:59;;;;;;;6.15;2.25;;;6.70;99.90;;;;;;5405332;26;20014;-79
2024/04/19 03:31:25;;;;;;;4.18;2.55;;;6.70;99.90;;;;;;5432037;26;20014;-79
2024/04/19 03:33:50;;;;;;;6.53;2.15;;;6.80;99.90;;;;;;5422145;26;20042;-79
2024/04/19 03:36:16;;;;;;;5.25;2.90;;;6.70;99.90;;;;;;5410596;26;20532;-79
2024/04/19 03:38:41;;;;;;;5.35;3.70;;;6.70;99.90;;;;;;5432095;26;20546;-79
2024/04/19 03:41:13;;;;;;;5.18;2.97;;;6.70;99.90;;;;;;5422715;26;20450;-78
2024/04/19 03:43:51;;;;;;;7.13;3.17;;;6.70;99.90;;;;;;5435078;26;19999;-78
2024/04/19 03:46:17;;;;;;;6.93;3.55;;;6.70;99.90;;;;;;5408657;26;20015;-78
2024/04/19 03:48:42;;;;;;;4.57;3.15;;;6.70;99.90;;;;;;5432474;26;20131;-78
2024/04/19 03:51:08;;;;;;;3.58;1.80;;;6.60;99.90;;;;;;5398437;26;21562;-79
2024/04/19 03:53:33;;;;;;;4.53;3.15;;;6.60;99.90;;;;;;5430401;26;20053;-79
2024/04/19 03:55:59;;;;;;;4.72;2.75;;;6.60;99.90;;;;;;5430892;26;20035;-78
2024/04/19 03:58:25;;;;;;;4.25;2.78;;;6.70;99.90;;;;;;5428821;26;20011;-78
2024/04/19 04:00:50;;;;;;;4.15;2.72;;;6.60;99.90;;;;;;5407146;26;20010;-79
2024/04/19 04:03:16;;;;;;;11.52;3.00;;;6.60;99.90;;;;;;5423990;26;20002;-79
2024/04/19 04:05:48;;;;;;;1.83;1.67;;;6.60;99.90;;;;;;5437797;26;20462;-79
2024/04/19 04:08:13;;;;;;;2.30;1.92;;;6.60;99.90;;;;;;5410118;26;19999;-79
2024/04/19 04:10:39;;;;;;;3.22;2.03;;;6.70;99.90;;;;;;5438679;26;20003;-79
2024/04/19 04:13:04;;;;;;;2.17;1.20;;;6.70;99.90;;;;;;5435883;26;20003;-79
2024/04/19 04:15:33;;;;;;;3.50;2.65;;;6.70;99.90;;;;;;5408602;26;20435;-79
2024/04/19 04:18:00;;;;;;;9.25;3.30;;;6.60;99.90;;;;;;5434891;26;20011;-79
2024/04/19 04:20:26;;;;;;;3.35;2.67;;;6.60;99.90;;;;;;5388497;26;20022;-78
2024/04/19 04:22:51;;;;;;;3.22;2.28;;;6.60;99.90;;;;;;5427354;26;20040;-78
2024/04/19 04:25:17;;;;;;;4.72;2.55;;;6.60;99.90;;;;;;5433348;26;20015;-78
2024/04/19 04:27:42;;;;;;;4.57;2.20;;;6.60;99.90;;;;;;5433957;26;20039;-79
2024/04/19 04:30:08;;;;;;;5.43;2.53;;;6.60;99.90;;;;;;5391378;26;19995;-79
2024/04/19 04:32:34;;;;;;;2.67;2.17;;;6.60;99.90;;;;;;5401995;26;20011;-79
2024/04/19 04:34:59;;;;;;;3.33;2.38;;;6.60;99.90;;;;;;5402469;26;20014;-79
2024/04/19 04:37:25;;;;;;;4.13;2.35;;;6.60;99.90;;;;;;5426328;26;20333;-80
2024/04/19 04:39:56;;;;;;;3.08;1.90;;;6.60;99.90;;;;;;5424249;26;20072;-80
2024/04/19 04:42:23;;;;;;;2.22;1.80;;;6.60;99.90;;;;;;5429107;26;20078;-79
2024/04/19 04:44:51;;;;;;;2.58;1.88;;;6.60;99.90;;;;;;5430069;26;20009;-78
2024/04/19 04:47:16;;;;;;;3.35;2.25;;;6.60;99.90;;;;;;5456134;26;20014;-78
2024/04/19 04:49:42;;;;;;;5.25;2.55;;;6.60;99.90;;;;;;5425075;26;19999;-79
2024/04/19 04:52:07;;;;;;;2.20;1.58;;;6.60;99.90;;;;;;5422549;26;20415;-80
2024/04/19 04:54:33;;;;;;;5.45;2.65;;;6.60;99.90;;;;;;5390513;26;20044;-80
2024/04/19 04:56:58;;;;;;;3.05;2.10;;;6.60;99.90;;;;;;5433667;26;20003;-79
2024/04/19 04:59:24;;;;;;;3.75;1.90;;;6.60;99.90;;;;;;5433906;26;20007;-79
2024/04/19 05:01:49;;;;;;;3.90;2.47;;;6.60;99.90;;;;;;5379271;26;20035;-78
2024/04/19 05:04:15;;;;;;;2.40;1.60;;;6.60;99.90;;;;;;5423264;26;20010;-79
2024/04/19 05:06:40;;;;;;;4.60;2.90;;;6.60;99.90;;;;;;5421678;26;19994;-78
2024/04/19 05:09:06;;;;;;;1.75;1.40;;;6.60;99.90;;;;;;5427260;26;22165;-80
2024/04/19 05:11:32;;;;;;;3.00;1.52;;;6.60;99.90;;;;;;5420907;26;20367;-79
2024/04/19 05:13:57;;;;;;;3.28;1.50;;;6.70;99.90;;;;;;5428859;26;20015;-80
2024/04/19 05:16:23;;;;;;;3.50;1.67;;;6.70;99.90;;;;;;5434709;26;20004;-80
2024/04/19 05:18:49;;;;;;;2.65;1.85;;;6.70;99.90;;;;;;5433901;26;20109;-80
2024/04/19 05:21:14;;;;;;;2.25;1.30;;;6.70;99.90;;;;;;5427884;26;20000;-80
2024/04/19 05:23:40;;;;;;;3.42;2.42;;;6.70;99.90;;;;;;5404580;26;20006;-80
2024/04/19 05:26:05;;;;;;;3.95;2.03;;;6.70;99.90;;;;;;5427355;26;20373;-79
2024/04/19 05:28:31;;;;;;;1.25;0.93;;;6.70;99.90;;;;;;5423532;26;20095;-80
2024/04/19 05:30:57;;;;;;;2.97;1.75;;;6.60;99.90;;;;;;5426157;26;20060;-79
2024/04/19 05:33:23;;;;;;;3.05;1.65;;;6.80;99.90;;;;;;5424148;26;20039;-80
2024/04/19 05:35:49;;;;;;;3.35;2.15;;;6.70;99.90;;;;;;5408300;26;20003;-80
2024/04/19 05:38:14;;;;;;;1.67;0.95;;;6.70;99.90;;;;;;5429504;26;20085;-80
2024/04/19 05:40:40;;;;;;;4.50;1.42;;;6.70;99.90;;;;;;5398373;26;20003;-78
2024/04/19 05:43:05;;;;;;;2.05;1.15;;;6.70;99.90;;;;;;5426849;26;20007;-77
2024/04/19 05:45:31;;;;;;;1.80;1.10;;;6.80;99.90;;;;;;5427248;26;20411;-78
2024/04/19 05:47:57;;;;;;;4.55;2.60;;;6.70;99.90;;;;;;5412175;26;20053;-78
2024/04/19 05:50:22;;;;;;;1.60;1.50;;;6.70;99.90;;;;;;5407516;26;20006;-78
2024/04/19 05:52:48;;;;;;;3.17;1.85;;;6.70;99.90;;;;;;5436823;26;20383;-78
2024/04/19 05:55:17;;;;;;;2.92;1.45;;;6.70;99.90;;;;;;5422182;26;20031;-79
2024/04/19 05:57:42;;;;;;;2.53;1.13;;;6.70;99.90;;;;;;5401974;26;20010;-78
2024/04/19 06:00:08;;;;;;;1.63;1.00;;;6.70;99.90;;;;;;5431431;26;20015;-78
2024/04/19 06:02:34;;;;;;;2.08;1.25;;;6.70;99.90;;;;;;5397523;26;20390;-78
2024/04/19 06:05:00;;;;;;;3.60;1.08;;;6.80;99.90;;;;;;5436486;26;19999;-78
2024/04/19 06:07:32;;;;;;;1.42;1.08;;;6.70;99.90;;;;;;5434193;26;20453;-78
2024/04/19 06:09:57;;;;;;;3.80;1.73;;;6.70;99.90;;;;;;5397601;26;20014;-78
2024/04/19 06:12:23;;;;;;;2.95;1.88;;;6.70;99.90;;;;;;5407755;26;20393;-78
2024/04/19 06:14:48;;;;;;;1.08;0.98;;;6.70;99.90;;;;;;5437695;26;20000;-78
2024/04/19 06:17:14;;;;;;;1.83;1.23;;;6.80;99.90;;;;;;5439998;26;19999;-78
2024/04/19 06:19:39;;;;;;;2.53;1.63;;;6.80;99.90;;;;;;5435731;26;20331;-78
2024/04/19 06:22:05;;;;;;;1.75;1.42;;;6.80;99.90;;;;;;5430469;26;20010;-78
2024/04/19 06:24:33;;;;;;;1.75;1.27;;;6.80;99.90;;;;;;5433999;26;20004;-77
2024/04/19 06:26:59;;;;;;;1.77;1.48;;;6.80;99.90;;;;;;5401125;26;20003;-78
2024/04/19 06:29:24;;;;;;;2.72;1.67;;;6.80;99.90;;;;;;5406735;26;20517;-78
2024/04/19 06:31:50;;;;;;;4.65;1.90;;;6.80;99.90;;;;;;5396064;26;20003;-78
2024/04/19 06:34:15;;;;;;;1.38;1.27;;;6.80;99.90;;;;;;5410570;26;20459;-78
2024/04/19 06:36:41;;;;;;;1.83;1.35;;;6.80;99.90;;;;;;5441499;26;20002;-78
2024/04/19 06:39:07;;;;;;;1.35;1.25;;;6.80;99.90;;;;;;5429475;26;20044;-78
2024/04/19 06:41:32;;;;;;;2.25;2.05;;;6.90;99.90;;;;;;5405078;26;20016;-78
2024/04/19 06:43:58;;;;;;;3.45;2.30;;;6.90;99.90;;;;;;5428693;26;20011;-78
2024/04/19 06:46:23;;;;;;;2.13;1.65;;;6.90;99.90;;;;;;5401923;26;20014;-78
2024/04/19 06:48:49;;;;;;;1.77;1.05;;;6.90;99.90;;;;;;5381108;26;19999;-79
2024/04/19 06:51:15;;;;;;;2.25;1.75;;;7.00;99.90;;;;;;5436544;26;19999;-79
2024/04/19 06:53:40;;;;;;;2.17;1.88;;;7.00;99.90;;;;;;5440605;26;20010;-78
2024/04/19 06:56:06;;;;;;;0.80;0.80;;;7.00;99.90;;;;;;5430334;26;20012;-78
2024/04/19 06:58:32;;;;;;;1.73;1.30;;;7.00;99.90;;;;;;5428901;26;20455;-78
2024/04/19 07:00:57;;;;;;;1.33;1.20;;;7.00;99.90;;;;;;5422438;26;20332;-77
2024/04/19 07:03:23;;;;;;;2.05;1.45;;;7.00;99.90;;;;;;5426645;26;20466;-78
2024/04/19 07:05:48;;;;;;;1.88;1.50;;;7.10;99.90;;;;;;5440260;26;20042;-78
2024/04/19 07:08:14;;;;;;;1.20;1.05;;;7.10;99.90;;;;;;5438172;26;20449;-78
2024/04/19 07:10:40;;;;;;;2.25;1.23;;;7.10;99.90;;;;;;5439649;26;20446;-78
2024/04/19 07:13:05;;;;;;;1.17;0.98;;;7.20;99.90;;;;;;5406852;26;20000;-77
2024/04/19 07:15:31;;;;;;;1.95;1.65;;;7.20;99.90;;;;;;5409495;26;20363;-78
2024/04/19 07:17:57;;;;;;;1.05;0.95;;;7.20;99.90;;;;;;5401722;26;19999;-78
2024/04/19 07:20:22;;;;;;;1.85;1.67;;;7.20;99.90;;;;;;5402985;26;20017;-78
2024/04/19 07:22:48;;;;;;;2.00;1.67;;;7.20;99.90;;;;;;5437886;26;20439;-78
2024/04/19 07:25:14;;;;;;;3.50;1.50;;;7.30;99.90;;;;;;5430140;26;19990;-78
2024/04/19 07:27:39;;;;;;;2.00;1.52;;;7.30;99.90;;;;;;5428178;26;20055;-79
2024/04/19 07:30:07;;;;;;;3.13;1.80;;;7.30;99.90;;;;;;5402144;26;19991;-78
2024/04/19 07:32:32;;;;;;;1.67;1.23;;;7.30;99.90;;;;;;5424324;26;20661;-78
2024/04/19 07:34:58;;;;;;;2.47;1.65;;;7.40;99.90;;;;;;5434504;26;20003;-78
2024/04/19 07:37:23;;;;;;;4.63;3.50;;;7.40;99.90;;;;;;5439898;26;20006;-77
2024/04/19 07:39:49;;;;;;;2.90;2.05;;;7.40;99.90;;;;;;5395491;26;20003;-78
2024/04/19 07:42:14;;;;;;;3.15;2.33;;;7.50;99.90;;;;;;5392524;26;20028;-78
2024/04/19 07:44:40;;;;;;;1.92;1.02;;;7.50;99.90;;;;;;5401854;26;20007;-78
2024/04/19 07:47:07;;;;;;;3.30;2.38;;;7.50;99.90;;;;;;5411264;26;20027;-78
2024/04/19 07:49:33;;;;;;;6.78;6.03;;;7.50;99.90;;;;;;5408730;26;20133;-78
2024/04/19 07:51:58;;;;;;;5.68;4.40;;;7.50;99.90;;;;;;5427278;26;19999;-78
2024/04/19 07:54:24;;;;;;;5.25;4.38;;;7.50;99.90;;;;;;5436674;26;20106;-78
2024/04/19 07:56:49;;;;;;;6.05;4.53;;;7.50;99.90;;;;;;5428440;26;20003;-78
2024/04/19 07:59:15;;;;;;;5.28;3.50;;;7.60;99.90;;;;;;5435894;26;20011;-78
2024/04/19 08:01:40;;;;;;;8.27;5.57;;;7.60;99.90;;;;;;5429933;26;20023;-79
2024/04/19 08:04:06;;;;;;;3.65;2.97;;;7.60;99.90;;;;;;5431812;26;19996;-78
2024/04/19 08:06:32;;;;;;;5.65;4.05;;;7.70;99.90;;;;;;5436277;26;20768;-78
2024/04/19 08:08:58;;;;;;;5.78;4.53;;;7.70;99.90;;;;;;5396881;26;20436;-78
2024/04/19 08:11:24;;;;;;;10.90;8.30;;;7.70;99.90;;;;;;5435734;26;20011;-78
2024/04/19 08:13:49;;;;;;;10.20;9.18;;;7.80;99.90;;;;;;5426733;26;20000;-78
2024/04/19 08:16:15;;;;;;;6.35;5.65;;;7.80;99.90;;;;;;5408482;26;19996;-78
2024/04/19 08:18:40;;;;;;;7.75;6.95;;;7.90;99.90;;;;;;5409573;26;20399;-78
2024/04/19 08:21:06;;;;;;;9.30;6.30;;;7.90;99.90;;;;;;5430514;26;20098;-78
2024/04/19 08:23:31;;;;;;;11.77;9.30;;;7.90;99.90;;;;;;5432755;26;20479;-78
2024/04/19 08:26:05;;;;;;;3.15;2.55;;;7.90;99.90;;;;;;5401884;26;19999;-78
2024/04/19 08:28:30;;;;;;;7.88;5.00;;;8.10;99.90;;;;;;5440683;26;19998;-77
2024/04/19 08:30:56;;;;;;;11.85;9.32;;;8.10;99.90;;;;;;5432416;26;20355;-78
2024/04/19 08:33:22;;;;;;;8.10;7.18;;;8.20;99.90;;;;;;5399491;26;20349;-78
2024/04/19 08:35:57;;;;;;;9.63;7.70;;;8.20;99.90;;;;;;5431502;26;20031;-78
2024/04/19 08:38:23;;;;;;;10.88;9.57;;;8.20;99.90;;;;;;5399337;26;20020;-77
2024/04/19 08:40:53;;;;;;;7.38;6.53;;;8.20;99.90;;;;;;5403940;26;20002;-77
2024/04/19 08:43:19;;;;;;;6.72;5.60;;;8.20;99.90;;;;;;5395131;26;20015;-78
2024/04/19 08:45:45;;;;;;;9.25;7.82;;;8.30;99.90;;;;;;5424467;26;20011;-77
2024/04/19 08:48:10;;;;;;;5.72;5.07;;;8.20;99.90;;;;;;5437875;26;20006;-78
2024/04/19 08:50:36;;;;;;;10.43;7.22;;;8.40;99.90;;;;;;5438714;26;20063;-78
2024/04/19 08:53:02;;;;;;;4.13;2.47;;;8.40;99.90;;;;;;5399507;26;20003;-78
2024/04/19 08:55:27;;;;;;;4.32;2.72;;;8.40;99.90;;;;;;5421813;26;20017;-77
2024/04/19 08:57:55;;;;;;;6.82;4.38;;;8.30;99.90;;;;;;5418626;26;20077;-78
2024/04/19 09:00:21;;;;;;;4.32;3.92;;;8.20;99.90;;;;;;5407543;26;20076;-77
2024/04/19 09:02:46;;;;;;;4.85;3.47;;;8.30;99.90;;;;;;5430192;26;20003;-77
2024/04/19 09:05:12;;;;;;;7.35;1.92;;;8.30;99.90;;;;;;5423592;26;20030;-77
2024/04/19 09:07:40;;;;;;;2.90;1.90;;;8.20;99.90;;;;;;5409565;26;20026;-77
2024/04/19 09:10:05;;;;;;;5.55;0.93;;;8.00;99.90;;;;;;5433859;26;20039;-77
2024/04/19 09:12:42;;;;;;;2.28;1.27;;;7.80;99.90;;;;;;5423292;26;20003;-77
2024/04/19 09:15:08;;;;;;;1.00;0.90;;;7.80;99.90;;;;;;5438486;26;20084;-77
2024/04/19 09:17:33;;;;;;;1.48;1.15;;;7.80;99.90;;;;;;5423149;26;20011;-77
2024/04/19 09:19:59;;;;;;;4.47;1.90;;;7.80;99.90;;;;;;5434582;26;19994;-77
2024/04/19 09:22:25;;;;;;;4.30;2.00;;;7.90;99.90;;;;;;5422187;26;19999;-76
2024/04/19 09:24:53;;;;;;;14.10;3.25;;;7.90;99.90;;;;;;5433354;26;20015;-76
2024/04/19 09:27:18;;;;;;;7.40;3.22;;;8.00;99.90;;;;;;5436319;26;20014;-77
2024/04/19 09:29:44;;;;;;;5.72;4.72;;;8.00;99.90;;;;;;5436682;26;21833;-77
2024/04/19 09:32:10;;;;;;;7.72;4.47;;;8.00;99.90;;;;;;5437212;26;20018;-77
2024/04/19 09:34:35;;;;;;;12.63;4.25;;;8.10;99.90;;;;;;5428103;26;20084;-77
2024/04/19 09:37:02;;;;;;;10.48;5.50;;;8.10;99.90;;;;;;5396932;26;20563;-77
2024/04/19 09:39:29;;;;;;;5.75;3.17;;;8.10;99.90;;;;;;5405955;26;20018;-77
2024/04/19 09:41:55;;;;;;;6.47;3.90;;;8.10;99.90;;;;;;5432848;26;20004;-78
2024/04/19 09:44:22;;;;;;;7.93;3.25;;;8.10;99.90;;;;;;5435354;26;20003;-77
2024/04/19 09:46:52;;;;;;;5.13;2.90;;;8.20;99.90;;;;;;5405401;26;20004;-78
2024/04/19 09:49:18;;;;;;;4.40;2.55;;;8.20;99.90;;;;;;5436472;26;20316;-77
2024/04/19 09:51:47;;;;;;;4.55;2.60;;;8.20;99.90;;;;;;5426515;26;20017;-77
2024/04/19 09:54:13;;;;;;;4.22;2.00;;;8.30;99.90;;;;;;5434470;26;20030;-77
2024/04/19 09:57:00;;;;;;;2.78;1.90;;;8.30;99.90;;;;;;5432886;26;20548;-78
2024/04/19 09:59:26;;;;;;;2.55;1.60;;;8.40;99.90;;;;;;5433916;26;20430;-78
2024/04/19 10:01:52;;;;;;;2.42;1.70;;;8.50;99.90;;;;;;5434230;26;20011;-78
2024/04/19 10:04:18;;;;;;;3.85;2.03;;;8.60;99.90;;;;;;5432692;26;20011;-77
2024/04/19 10:06:44;;;;;;;4.00;1.92;;;8.70;99.90;;;;;;5433246;26;20019;-78
2024/04/19 10:09:17;;;;;;;3.85;1.50;;;8.80;99.90;;;;;;5436424;26;20435;-79
2024/04/19 10:11:46;;;;;;;3.53;1.63;;;8.90;99.90;;;;;;5380107;26;20000;-78
2024/04/19 10:14:12;;;;;;;3.72;1.95;;;9.10;99.90;;;;;;5428179;26;19999;-77
2024/04/19 10:16:41;;;;;;;2.80;1.50;;;9.10;99.90;;;;;;5406938;26;20536;-78
2024/04/19 10:19:06;;;;;;;3.58;1.95;;;9.20;99.90;;;;;;5403321;26;20048;-78
2024/04/19 10:21:33;;;;;;;4.78;2.20;;;9.30;99.90;;;;;;5430553;26;19999;-78
2024/04/19 10:24:08;;;;;;;10.27;2.75;;;9.40;99.90;;;;;;5402445;26;20071;-78
2024/04/19 10:26:33;;;;;;;6.28;2.22;;;9.50;99.90;;;;;;5410876;26;20006;-77
2024/04/19 10:29:01;;;;;;;9.40;2.67;;;9.30;99.90;;;;;;5423353;26;20010;-78
2024/04/19 10:31:28;;;;;;;7.28;2.13;;;9.20;99.90;;;;;;5410784;26;20496;-77
2024/04/19 10:33:54;;;;;;;6.28;3.10;;;9.20;99.90;;;;;;5440538;26;20495;-77
2024/04/19 10:36:19;;;;;;;13.93;3.13;;;9.20;99.90;;;;;;5410799;26;20019;-77
2024/04/19 10:38:46;;;;;;;5.00;2.22;;;9.20;99.90;;;;;;5437231;26;20003;-78
2024/04/19 10:41:16;;;;;;;8.00;2.80;;;9.20;99.90;;;;;;5407516;26;20003;-77
2024/04/19 10:43:44;;;;;;;5.90;1.65;;;9.20;99.90;;;;;;5427979;26;20372;-77
2024/04/19 10:46:14;;;;;;;3.92;2.85;;;9.10;99.90;;;;;;5404212;26;20003;-78
2024/04/19 10:48:43;;;;;;;7.35;2.15;;;9.20;99.90;;;;;;5435599;26;20007;-77
2024/04/19 10:51:13;;;;;;;7.60;3.40;;;9.20;99.90;;;;;;5440503;26;20030;-77
2024/04/19 10:53:40;;;;;;;4.47;2.83;;;9.30;99.90;;;;;;5433908;26;20328;-77
2024/04/19 10:56:06;;;;;;;2.95;1.63;;;9.40;99.90;;;;;;5434315;26;20006;-78
2024/04/19 10:58:31;;;;;;;12.18;1.90;;;9.40;99.90;;;;;;5430994;26;19999;-77
2024/04/19 11:00:57;;;;;;;2.97;1.23;;;9.50;99.90;;;;;;5436676;26;19999;-77
2024/04/19 11:03:23;;;;;;;3.75;1.20;;;9.40;99.90;;;;;;5412065;26;20025;-77
2024/04/19 11:05:49;;;;;;;3.58;1.40;;;9.50;99.90;;;;;;4686707;26;10000526;-77
2024/04/19 11:08:15;;;;;;;6.03;1.08;;;9.50;99.90;;;;;;5434615;26;20029;-77
2024/04/19 11:10:46;;;;;;;2.08;1.13;;;9.70;99.90;;;;;;5434028;26;19999;-77
2024/04/19 11:13:13;;;;;;;2.80;1.35;;;9.70;99.90;;;;;;5427919;26;20503;-77
2024/04/19 11:15:38;;;;;;;3.15;1.20;;;9.80;99.90;;;;;;5428898;26;20000;-77
2024/04/19 11:18:06;;;;;;;1.77;1.17;;;10.00;99.90;;;;;;5424915;26;20010;-77
2024/04/19 11:20:32;;;;;;;1.75;1.05;;;10.20;99.90;;;;;;5411415;26;20644;-77
2024/04/19 11:23:01;;;;;;;1.60;1.10;;;10.50;99.90;;;;;;5399025;26;20447;-77
2024/04/19 11:25:36;;;;;;;2.63;0.60;;;10.70;99.90;;;;;;5405233;26;20012;-77
2024/04/19 11:28:07;;;;;;;2.78;1.25;;;11.00;99.90;;;;;;5439979;26;19999;-77
2024/04/19 11:30:40;;;;;;;5.22;1.38;;;11.20;99.90;;;;;;5424360;26;20021;-78
2024/04/19 11:33:10;;;;;;;6.93;1.80;;;11.50;99.90;;;;;;5433464;26;20529;-77
2024/04/19 11:35:40;;;;;;;4.05;1.50;;;11.70;99.90;;;;;;5423947;26;19999;-77
2024/04/19 11:38:05;;;;;;;3.88;1.27;;;11.80;99.90;;;;;;5393877;26;20006;-77
2024/04/19 11:40:31;;;;;;;2.67;1.48;;;11.90;99.90;;;;;;5407239;26;19995;-77
2024/04/19 11:42:56;;;;;;;5.15;2.35;;;12.10;99.90;;;;;;5403002;26;20072;-77
2024/04/19 11:45:25;;;;;;;4.53;2.65;;;12.40;99.90;;;;;;5428083;26;20004;-77
2024/04/19 11:47:51;;;;;;;3.58;3.28;;;12.40;99.90;;;;;;5433875;26;20010;-77
2024/04/19 11:50:19;;;;;;;3.70;3.20;;;12.60;99.90;;;;;;5441384;26;20015;-78
2024/04/19 11:52:46;;;;;;;2.28;2.08;;;12.90;99.90;;;;;;5428167;26;20010;-77
2024/04/19 11:55:12;;;;;;;2.95;1.92;;;13.20;99.90;;;;;;5429538;26;20003;-77
2024/04/19 11:57:37;;;;;;;3.00;1.77;;;13.20;99.90;;;;;;5410639;26;20411;-77
2024/04/19 12:00:04;;;;;;;4.07;1.67;;;13.20;99.90;;;;;;5431336;26;20047;-78
2024/04/19 12:02:30;;;;;;;3.25;2.25;;;13.30;99.90;;;;;;5405034;26;20013;-77
2024/04/19 12:04:55;;;;;;;4.70;1.60;;;13.40;99.90;;;;;;5437873;26;19999;-77
2024/04/19 12:07:21;;;;;;;1.75;1.50;;;13.60;99.90;;;;;;5424174;26;20035;-78
2024/04/19 12:09:47;;;;;;;3.22;1.40;;;13.80;99.90;;;;;;5434683;26;20011;-78
2024/04/19 12:12:14;;;;;;;2.55;1.30;;;14.10;99.90;;;;;;5432239;26;20540;-78
2024/04/19 12:14:40;;;;;;;1.38;0.95;;;14.20;99.90;;;;;;5403120;26;19999;-77
2024/04/19 12:17:08;;;;;;;0.73;0.50;;;14.00;99.90;;;;;;5400081;26;20014;-77
2024/04/19 12:19:36;;;;;;;1.98;0.90;;;14.10;99.90;;;;;;5428988;26;20861;-77
2024/04/19 12:22:01;;;;;;;3.00;0.90;;;14.10;99.90;;;;;;5404064;26;20059;-77
2024/04/19 12:24:27;;;;;;;11.23;1.52;;;14.00;99.90;;;;;;5400618;26;20026;-76
2024/04/19 12:26:52;;;;;;;4.13;0.90;;;14.10;99.90;;;;;;5427378;26;20400;-77
2024/04/19 12:29:18;;;;;;;3.22;0.40;;;12.90;99.90;;;;;;5402605;26;20013;-76
2024/04/19 12:31:43;;;;;;;3.72;0.52;;;12.00;99.90;;;;;;5436403;26;20035;-77
2024/04/19 12:34:09;;;;;;;4.95;0.50;;;11.50;99.90;;;;;;5432740;26;20010;-76
2024/04/19 12:36:35;;;;;;;2.08;0.52;;;11.30;99.90;;;;;;5425432;26;20391;-77
2024/04/19 12:39:01;;;;;;;2.15;0.40;;;10.80;99.90;;;;;;5428612;26;20010;-76
2024/04/19 12:41:29;;;;;;;8.82;0.70;;;10.80;99.90;;;;;;5429327;26;20010;-77
2024/04/19 12:43:56;;;;;;;5.40;0.40;;;10.60;99.90;;;;;;5407385;26;20406;-77
2024/04/19 12:46:21;;;;;;;9.43;0.68;;;10.60;99.90;;;;;;5432624;26;20087;-76
2024/04/19 12:48:47;;;;;;;2.90;0.40;;;10.40;99.90;;;;;;5436619;26;19999;-76
2024/04/19 12:51:13;;;;;;;3.47;0.57;;;10.40;99.90;;;;;;5435317;26;20650;-77
2024/04/19 12:53:39;;;;;;;0.98;0.40;;;10.40;99.90;;;;;;5437657;26;20003;-77
2024/04/19 12:56:05;;;;;;;2.03;0.77;;;10.50;99.90;;;;;;5399762;26;19996;-77